Terminal Aerodrome Forecast
Issued by NWS

Current Version | Previous Version | Text Only | Print | Product List | Glossary Off
Versions: 1 2 3 4 5 6 7 8 9 10 11 12 13 14 15 16 17 18 19

000
FTUS41 KPBZ 190500
TAFHLG
TAF
KHLG 190539Z 1906/2006 25010G15KT P6SM FEW012 OVC050
     FM191000 21008KT P6SM FEW025 BKN100
     FM191900 18011G18KT 4SM -SN BKN035 OVC100
     FM200100 18009KT 4SM -SN BKN025=

USA.gov is the U.S. government's official web portal to all federal, state and local government web resources and services.